createdAt,value
2018-08-30T00:02:00.073Z,100867.34
2018-08-30T00:04:28.544Z,100862.95
2018-08-30T00:06:57.090Z,100865.00
2018-08-30T00:09:25.601Z,100875.02
2018-08-30T00:11:54.057Z,100878.80
2018-08-30T00:14:22.548Z,100885.16
2018-08-30T00:16:51.048Z,100885.23
2018-08-30T00:19:19.584Z,100890.91
2018-08-30T00:21:48.085Z,100896.30
2018-08-30T00:24:16.642Z,100899.58
2018-08-30T00:26:45.181Z,100896.09
2018-08-30T00:29:13.651Z,100896.99
2018-08-30T00:31:42.186Z,100908.05
2018-08-30T00:34:10.674Z,100900.79
2018-08-30T00:36:39.260Z,100907.25
2018-08-30T00:39:09.437Z,100914.51
2018-08-30T00:41:38.195Z,100916.55
2018-08-30T00:44:13.095Z,100920.54
2018-08-30T00:46:41.626Z,100915.01
2018-08-30T00:49:10.138Z,100924.52
2018-08-30T00:51:38.637Z,100927.19
2018-08-30T00:54:07.105Z,100926.89
2018-08-30T00:56:35.604Z,100926.28
2018-08-30T00:59:04.295Z,100932.21
2018-08-30T01:01:32.773Z,100930.38
2018-08-30T01:04:01.284Z,100930.17
2018-08-30T01:06:29.839Z,100934.36
2018-08-30T01:08:58.345Z,100933.13
2018-08-30T01:11:26.844Z,100932.83
2018-08-30T01:13:55.375Z,100937.73
2018-08-30T01:16:24.129Z,100944.38
2018-08-30T01:18:52.671Z,100944.88
2018-08-30T01:21:21.258Z,100951.31
2018-08-30T01:23:49.778Z,100951.22
2018-08-30T01:26:18.409Z,100949.88
2018-08-30T01:28:46.889Z,100951.20
2018-08-30T01:31:15.478Z,100954.79
2018-08-30T01:33:44.194Z,100952.77
2018-08-30T01:36:12.694Z,100948.56
2018-08-30T01:38:41.213Z,100954.17
2018-08-30T01:41:09.765Z,100956.34
2018-08-30T01:43:38.270Z,100953.38
2018-08-30T01:46:06.873Z,100956.75
2018-08-30T01:48:35.401Z,100945.28
2018-08-30T01:51:03.914Z,100944.45
2018-08-30T01:53:32.480Z,100949.59
2018-08-30T01:56:01.055Z,100955.83
2018-08-30T01:58:29.581Z,100955.00
2018-08-30T02:00:58.089Z,100959.20
2018-08-30T02:03:26.700Z,100957.87
2018-08-30T02:05:55.331Z,100968.30
2018-08-30T02:08:23.849Z,100952.86
2018-08-30T02:10:52.340Z,100958.56
2018-08-30T02:13:20.899Z,100958.89
2018-08-30T02:15:49.580Z,100950.59
2018-08-30T02:18:18.062Z,100960.11
2018-08-30T02:20:46.562Z,100959.81
2018-08-30T02:23:15.112Z,100958.78
2018-08-30T02:25:43.723Z,100955.00
2018-08-30T02:28:12.252Z,100953.99
2018-08-30T02:30:40.819Z,100960.23
2018-08-30T02:33:09.466Z,100957.46
2018-08-30T02:35:38.107Z,100959.42
2018-08-30T02:38:06.658Z,100960.75
2018-08-30T02:40:35.166Z,100957.97
2018-08-30T02:43:03.802Z,100965.87
2018-08-30T02:45:32.435Z,100966.58
2018-08-30T02:48:01.010Z,100969.23
2018-08-30T02:50:29.549Z,100967.59
2018-08-30T02:52:58.073Z,100976.89
2018-08-30T02:55:26.597Z,100975.27
2018-08-30T02:57:55.530Z,100970.24
2018-08-30T03:00:24.482Z,100974.23
2018-08-30T03:02:53.038Z,100981.29
2018-08-30T03:05:21.565Z,100972.59
2018-08-30T03:07:50.055Z,100968.82
2018-08-30T03:10:18.589Z,100970.56
2018-08-30T03:12:47.162Z,100973.72
2018-08-30T03:15:16.290Z,100975.97
2018-08-30T03:17:44.773Z,100972.72
2018-08-30T03:20:14.365Z,100970.98
2018-08-30T03:22:43.187Z,100971.48
2018-08-30T03:25:11.810Z,100983.24
2018-08-30T03:27:40.265Z,100984.98
2018-08-30T03:30:09.215Z,100984.08
2018-08-30T03:32:37.699Z,100995.09
2018-08-30T03:35:06.209Z,100989.78
2018-08-30T03:37:34.764Z,100994.18
2018-08-30T03:40:03.334Z,100991.94
2018-08-30T03:42:31.896Z,100999.29
2018-08-30T03:45:00.386Z,100998.64
2018-08-30T03:47:28.922Z,100993.97
2018-08-30T03:49:57.455Z,100994.59
2018-08-30T03:52:26.122Z,100999.91
2018-08-30T03:54:54.650Z,101002.95
2018-08-30T03:57:23.197Z,101008.27
2018-08-30T03:59:51.788Z,101014.79
2018-08-30T04:02:20.303Z,101021.23
2018-08-30T04:04:48.858Z,101020.40
2018-08-30T04:07:17.522Z,101016.53
2018-08-30T04:09:46.057Z,101028.86
2018-08-30T04:12:14.659Z,101036.95
2018-08-30T04:14:43.179Z,101028.86
2018-08-30T04:17:11.735Z,101038.91
2018-08-30T04:19:40.348Z,101035.33
2018-08-30T04:22:08.993Z,101035.12
2018-08-30T04:24:37.390Z,101028.86
2018-08-30T04:27:06.102Z,101034.08
2018-08-30T04:29:34.617Z,101036.19
2018-08-30T04:32:03.381Z,101045.28
2018-08-30T04:34:31.885Z,101048.34
2018-08-30T04:37:00.429Z,101044.16
2018-08-30T04:39:28.952Z,101048.85
2018-08-30T04:41:57.493Z,101055.62
2018-08-30T04:44:26.037Z,101056.87
2018-08-30T04:46:54.513Z,101061.55
2018-08-30T04:49:23.041Z,101064.29
2018-08-30T04:51:51.620Z,101063.09
2018-08-30T04:54:20.174Z,101067.16
2018-08-30T04:56:48.697Z,101069.24
2018-08-30T04:59:17.207Z,101078.43
2018-08-30T05:01:52.630Z,101078.13
2018-08-30T05:04:21.254Z,101080.09
2018-08-30T05:06:49.794Z,101085.41
2018-08-30T05:09:18.292Z,101092.13
2018-08-30T05:11:46.773Z,101095.28
2018-08-30T05:14:15.314Z,101095.69
2018-08-30T05:16:44.090Z,101101.30
2018-08-30T05:19:12.699Z,101100.17
2018-08-30T05:21:41.218Z,101105.81
2018-08-30T05:24:09.740Z,101105.00
2018-08-30T05:26:38.263Z,101108.20
2018-08-30T05:29:06.794Z,101108.41
2018-08-30T05:31:35.476Z,101113.82
2018-08-30T05:34:03.981Z,101109.64
2018-08-30T05:36:32.555Z,101110.67
2018-08-30T05:39:01.115Z,101114.22
2018-08-30T05:41:29.657Z,101116.66
2018-08-30T05:43:58.548Z,101119.53
2018-08-30T05:46:27.042Z,101117.51
2018-08-30T05:48:55.551Z,101124.45
2018-08-30T05:51:24.088Z,101125.28
2018-08-30T05:53:52.557Z,101123.88
2018-08-30T05:56:21.522Z,101126.54
2018-08-30T05:58:50.056Z,101127.57
2018-08-30T06:01:18.598Z,101125.91
2018-08-30T06:03:47.118Z,101125.20
2018-08-30T06:06:15.630Z,101132.48
2018-08-30T06:08:44.154Z,101135.77
2018-08-30T06:11:12.748Z,101131.16
2018-08-30T06:13:41.358Z,101131.48
2018-08-30T06:16:09.999Z,101129.94
2018-08-30T06:18:38.518Z,101135.36
2018-08-30T06:21:07.061Z,101145.90
2018-08-30T06:23:36.261Z,101141.41
2018-08-30T06:26:04.826Z,101144.78
2018-08-30T06:28:34.768Z,101149.19
2018-08-30T06:31:03.331Z,101149.27
2018-08-30T06:33:31.870Z,101149.09
2018-08-30T06:36:00.473Z,101166.06
2018-08-30T06:38:29.172Z,101161.37
2018-08-30T06:40:57.727Z,101154.09
2018-08-30T06:43:26.285Z,101157.67
2018-08-30T06:45:54.819Z,101166.27
2018-08-30T06:48:23.396Z,101158.70
2018-08-30T06:50:51.934Z,101156.95
2018-08-30T06:53:20.463Z,101161.56
2018-08-30T06:55:48.987Z,101161.98
2018-08-30T06:58:17.583Z,101166.50
2018-08-30T07:00:46.068Z,101170.39
2018-08-30T07:03:14.559Z,101166.48
2018-08-30T07:05:43.102Z,101175.72
2018-08-30T07:08:11.760Z,101180.95
2018-08-30T07:10:40.375Z,101181.86
2018-08-30T07:13:08.974Z,101178.06
2018-08-30T07:15:37.626Z,101184.02
2018-08-30T07:18:07.140Z,101178.64
2018-08-30T07:20:35.669Z,101188.36
2018-08-30T07:23:04.314Z,101195.20
2018-08-30T07:25:32.850Z,101190.53
2018-08-30T07:28:01.801Z,101188.66
2018-08-30T07:30:30.307Z,101201.66
2018-08-30T07:32:58.778Z,101196.84
2018-08-30T07:35:27.364Z,101196.70
2018-08-30T07:37:55.878Z,101198.84
2018-08-30T07:40:24.635Z,101202.97
2018-08-30T07:42:53.135Z,101203.37
2018-08-30T07:45:21.609Z,101205.88
2018-08-30T07:47:50.565Z,101202.09
2018-08-30T07:50:19.094Z,101208.55
2018-08-30T07:52:47.722Z,101212.08
2018-08-30T07:55:16.397Z,101217.70
2018-08-30T07:57:44.890Z,101216.77
2018-08-30T08:00:13.379Z,101224.23
2018-08-30T08:02:42.000Z,101221.17
2018-08-30T08:05:10.552Z,101223.11
2018-08-30T08:07:39.202Z,101222.70
2018-08-30T08:10:07.846Z,101223.67
2018-08-30T08:12:36.371Z,101220.23
2018-08-30T08:15:04.927Z,101225.35
2018-08-30T08:17:33.577Z,101227.00
2018-08-30T08:20:02.078Z,101233.28
2018-08-30T08:22:30.641Z,101227.05
2018-08-30T08:24:59.219Z,101234.40
2018-08-30T08:27:27.998Z,101232.23
2018-08-30T08:29:59.372Z,101231.86
2018-08-30T08:32:27.974Z,101231.34
2018-08-30T08:34:56.598Z,101232.16
2018-08-30T08:37:25.104Z,101231.29
2018-08-30T08:39:53.641Z,101239.22
2018-08-30T08:42:22.134Z,101254.45
2018-08-30T08:44:50.681Z,101248.45
2018-08-30T08:47:19.238Z,101248.59
2018-08-30T08:49:47.785Z,101255.92
2018-08-30T08:52:16.346Z,101249.62
2018-08-30T08:54:44.898Z,101268.05
2018-08-30T08:57:13.386Z,101263.91
2018-08-30T08:59:41.969Z,101270.91
2018-08-30T09:02:10.567Z,101272.21
2018-08-30T09:04:39.404Z,101265.10
2018-08-30T09:07:07.942Z,101266.37
2018-08-30T09:09:36.525Z,101272.25
2018-08-30T09:12:05.178Z,101275.16
2018-08-30T09:14:33.781Z,101275.97
2018-08-30T09:17:02.454Z,101268.66
2018-08-30T09:19:31.062Z,101279.56
2018-08-30T09:21:59.782Z,101274.61
2018-08-30T09:24:28.264Z,101274.91
2018-08-30T09:26:56.907Z,101279.02
2018-08-30T09:29:25.423Z,101278.61
2018-08-30T09:31:53.915Z,101294.51
2018-08-30T09:34:22.702Z,101282.03
2018-08-30T09:36:52.115Z,101286.50
2018-08-30T09:39:20.655Z,101276.80
2018-08-30T09:41:49.154Z,101282.09
2018-08-30T09:44:17.659Z,101276.02
2018-08-30T09:46:46.536Z,101277.70
2018-08-30T09:49:15.067Z,101275.22
2018-08-30T09:51:43.554Z,101278.73
2018-08-30T09:54:12.050Z,101282.91
2018-08-30T09:56:40.675Z,101304.97
2018-08-30T09:59:09.223Z,101293.22
2018-08-30T10:01:43.011Z,101296.59
2018-08-30T10:04:11.590Z,101284.33
2018-08-30T10:06:40.270Z,101282.84
2018-08-30T10:09:10.150Z,101273.42
2018-08-30T10:11:39.551Z,101276.07
2018-08-30T10:14:08.233Z,101283.03
2018-08-30T10:16:36.942Z,101282.52
2018-08-30T10:19:05.458Z,101287.10
2018-08-30T10:21:34.070Z,101273.53
2018-08-30T10:24:02.532Z,101276.14
2018-08-30T10:26:31.088Z,101269.41
2018-08-30T10:28:59.678Z,101271.72
2018-08-30T10:31:28.271Z,101277.55
2018-08-30T10:33:56.815Z,101277.39
2018-08-30T10:36:25.333Z,101278.95
2018-08-30T10:38:53.882Z,101276.81
2018-08-30T10:41:22.426Z,101282.41
2018-08-30T10:43:51.058Z,101280.69
2018-08-30T10:46:19.575Z,101287.84
2018-08-30T10:48:48.161Z,101305.85
2018-08-30T10:51:16.674Z,101327.13
2018-08-30T10:53:45.212Z,101315.58
2018-08-30T10:56:14.771Z,101322.24
2018-08-30T10:58:43.348Z,101310.23
2018-08-30T11:01:11.887Z,101307.17
2018-08-30T11:03:40.555Z,101313.98
2018-08-30T11:06:09.284Z,101311.52
2018-08-30T11:08:37.789Z,101314.89
2018-08-30T11:11:06.359Z,101323.03
2018-08-30T11:13:35.108Z,101322.52
2018-08-30T11:16:03.653Z,101322.30
2018-08-30T11:18:32.162Z,101329.09
2018-08-30T11:21:00.658Z,101323.70
2018-08-30T11:23:29.258Z,101334.11
2018-08-30T11:25:57.783Z,101338.28
2018-08-30T11:28:26.302Z,101339.48
2018-08-30T11:30:54.855Z,101343.78
2018-08-30T11:33:23.399Z,101348.14
2018-08-30T11:35:51.906Z,101341.23
2018-08-30T11:38:20.470Z,101343.17
2018-08-30T11:40:48.994Z,101338.49
2018-08-30T11:43:17.765Z,101342.53
2018-08-30T11:45:47.006Z,101346.95
2018-08-30T11:48:15.510Z,101344.22
2018-08-30T11:50:44.057Z,101350.23
2018-08-30T11:53:12.562Z,101355.81
2018-08-30T11:55:41.258Z,101365.05
2018-08-30T11:58:09.971Z,101370.01
2018-08-30T12:00:39.420Z,101390.16
2018-08-30T12:03:07.998Z,101393.75
2018-08-30T12:05:36.565Z,101396.86
2018-08-30T12:08:06.139Z,101399.47
2018-08-30T12:10:37.031Z,101395.67
2018-08-30T12:13:05.610Z,101392.80
2018-08-30T12:15:34.226Z,101393.06
2018-08-30T12:18:03.146Z,101396.58
2018-08-30T12:20:31.724Z,101393.84
2018-08-30T12:23:00.437Z,101392.38
2018-08-30T12:25:28.979Z,101391.80
2018-08-30T12:27:57.569Z,101394.76
2018-08-30T12:30:26.113Z,101395.50
2018-08-30T12:32:54.645Z,101393.34
2018-08-30T12:35:23.384Z,101399.20
2018-08-30T12:37:51.877Z,101402.08
2018-08-30T12:40:20.665Z,101400.23
2018-08-30T12:42:49.352Z,101396.95
2018-08-30T12:45:19.344Z,101402.78
2018-08-30T12:47:48.134Z,101411.82
2018-08-30T12:50:16.776Z,101409.87
2018-08-30T12:52:45.291Z,101410.24
2018-08-30T12:55:13.855Z,101409.41
2018-08-30T12:57:42.477Z,101411.08
2018-08-30T13:00:11.875Z,101412.12
2018-08-30T13:02:40.389Z,101411.38
2018-08-30T13:05:08.969Z,101402.28
2018-08-30T13:07:37.620Z,101406.69
2018-08-30T13:10:06.368Z,101408.14
2018-08-30T13:12:34.917Z,101410.80
2018-08-30T13:15:03.670Z,101414.17
2018-08-30T13:17:33.072Z,101410.31
2018-08-30T13:20:01.831Z,101408.66
2018-08-30T13:22:30.306Z,101403.70
2018-08-30T13:24:59.413Z,101404.80
2018-08-30T13:27:27.705Z,101400.06
2018-08-30T13:29:56.474Z,101397.75
2018-08-30T13:32:25.182Z,101401.22
2018-08-30T13:34:54.102Z,101400.11
2018-08-30T13:37:22.706Z,101400.65
2018-08-30T13:39:51.240Z,101411.64
2018-08-30T13:42:20.618Z,101407.44
2018-08-30T13:44:49.180Z,101406.19
2018-08-30T13:47:17.671Z,101412.45
2018-08-30T13:49:46.098Z,101409.13
2018-08-30T13:52:15.094Z,101414.41
2018-08-30T13:54:43.677Z,101410.78
2018-08-30T13:57:14.157Z,101422.31
2018-08-30T13:59:43.003Z,101418.80
2018-08-30T14:02:17.939Z,101418.26
2018-08-30T14:04:46.388Z,101416.58
2018-08-30T14:07:14.820Z,101428.97
2018-08-30T14:09:43.545Z,101431.87
2018-08-30T14:12:12.273Z,101426.77
2018-08-30T14:14:40.621Z,101433.95
2018-08-30T14:17:08.874Z,101435.29
2018-08-30T14:19:37.535Z,101435.59
2018-08-30T14:22:06.067Z,101428.89
2018-08-30T14:24:34.814Z,101436.30
2018-08-30T14:27:03.849Z,101436.17
2018-08-30T14:29:32.186Z,101435.06
2018-08-30T14:32:00.666Z,101433.61
2018-08-30T14:34:29.187Z,101439.89
2018-08-30T14:36:57.924Z,101440.50
2018-08-30T14:39:26.554Z,101443.52
2018-08-30T14:41:55.150Z,101442.20
2018-08-30T14:44:23.966Z,101447.28
2018-08-30T14:46:52.474Z,101452.38
2018-08-30T14:49:21.016Z,101443.59
2018-08-30T14:51:49.579Z,101440.47
2018-08-30T14:54:18.223Z,101441.25
2018-08-30T14:56:46.735Z,101435.02
2018-08-30T14:59:15.278Z,101444.88
2018-08-30T15:01:43.898Z,101443.14
2018-08-30T15:04:12.406Z,101445.41
2018-08-30T15:06:40.874Z,101452.83
2018-08-30T15:09:09.721Z,101449.87
2018-08-30T15:11:38.233Z,101450.37
2018-08-30T15:14:07.114Z,101450.63
2018-08-30T15:16:35.630Z,101448.33
2018-08-30T15:19:04.322Z,101450.05
2018-08-30T15:21:33.043Z,101457.80
2018-08-30T15:24:01.558Z,101458.67
2018-08-30T15:26:30.022Z,101458.56
2018-08-30T15:28:58.542Z,101471.06
2018-08-30T15:31:28.525Z,101474.37
2018-08-30T15:33:57.786Z,101474.91
2018-08-30T15:36:26.286Z,101481.65
2018-08-30T15:38:54.805Z,101474.14
2018-08-30T15:41:23.318Z,101475.66
2018-08-30T15:43:51.996Z,101471.69
2018-08-30T15:46:20.559Z,101474.67
2018-08-30T15:48:49.160Z,101471.52
2018-08-30T15:51:18.098Z,101473.90
2018-08-30T15:53:46.484Z,101477.70
2018-08-30T15:56:15.149Z,101476.91
2018-08-30T15:58:43.614Z,101483.82
2018-08-30T16:01:12.132Z,101480.25
2018-08-30T16:03:40.679Z,101481.08
2018-08-30T16:06:09.290Z,101483.16
2018-08-30T16:08:37.818Z,101475.03
2018-08-30T16:11:06.386Z,101475.14
2018-08-30T16:13:34.890Z,101478.85
2018-08-30T16:16:03.463Z,101481.19
2018-08-30T16:18:32.638Z,101488.27
2018-08-30T16:21:01.373Z,101491.45
2018-08-30T16:23:32.410Z,101486.95
2018-08-30T16:26:00.891Z,101487.34
2018-08-30T16:28:30.376Z,101485.40
2018-08-30T16:30:59.261Z,101483.41
2018-08-30T16:33:27.947Z,101485.75
2018-08-30T16:35:56.897Z,101492.17
2018-08-30T16:38:25.545Z,101487.87
2018-08-30T16:40:54.219Z,101494.58
2018-08-30T16:43:22.961Z,101488.66
2018-08-30T16:45:51.558Z,101492.44
2018-08-30T16:48:20.014Z,101489.27
2018-08-30T16:50:48.530Z,101494.67
2018-08-30T16:53:17.108Z,101492.94
2018-08-30T16:55:45.592Z,101496.31
2018-08-30T16:58:14.601Z,101495.55
2018-08-30T17:00:43.160Z,101500.61
2018-08-30T17:03:11.725Z,101500.83
2018-08-30T17:05:40.314Z,101497.59
2018-08-30T17:08:08.795Z,101491.34
2018-08-30T17:10:37.307Z,101496.70
2018-08-30T17:13:06.215Z,101506.05
2018-08-30T17:15:34.738Z,101495.47
2018-08-30T17:18:03.268Z,101493.84
2018-08-30T17:20:41.498Z,101498.06
2018-08-30T17:23:10.335Z,101503.20
2018-08-30T17:25:38.858Z,101499.81
2018-08-30T17:28:07.346Z,101508.95
2018-08-30T17:30:35.978Z,101498.60
2018-08-30T17:33:04.575Z,101504.74
2018-08-30T17:35:33.212Z,101505.99
2018-08-30T17:38:01.808Z,101504.25
2018-08-30T17:40:30.309Z,101503.32
2018-08-30T17:42:58.930Z,101504.47
2018-08-30T17:45:27.653Z,101508.87
2018-08-30T17:47:56.250Z,101512.04
2018-08-30T17:50:24.849Z,101516.13
2018-08-30T17:52:53.311Z,101512.92
2018-08-30T17:55:22.038Z,101513.62
2018-08-30T17:57:50.561Z,101522.61
2018-08-30T18:00:19.360Z,101522.72
2018-08-30T18:02:48.164Z,101522.58
2018-08-30T18:05:16.857Z,101524.68
2018-08-30T18:07:45.776Z,101532.86
2018-08-30T18:10:14.368Z,101534.89
2018-08-30T18:12:42.850Z,101535.20
2018-08-30T18:15:13.233Z,101534.77
2018-08-30T18:17:41.800Z,101536.91
2018-08-30T18:20:10.374Z,101539.22
2018-08-30T18:22:38.965Z,101542.11
2018-08-30T18:25:08.419Z,101543.33
2018-08-30T18:27:37.600Z,101547.38
2018-08-30T18:30:07.475Z,101548.48
2018-08-30T18:32:36.098Z,101546.67
2018-08-30T18:35:04.783Z,101550.08
2018-08-30T18:37:33.325Z,101546.67
2018-08-30T18:40:01.831Z,101555.50
2018-08-30T18:42:30.493Z,101557.82
2018-08-30T18:44:59.040Z,101561.19
2018-08-30T18:47:27.704Z,101564.23
2018-08-30T18:49:56.576Z,101557.14
2018-08-30T18:52:25.380Z,101557.39
2018-08-30T18:54:54.633Z,101561.84
2018-08-30T18:57:23.648Z,101572.34
2018-08-30T18:59:52.763Z,101575.33
2018-08-30T19:02:21.716Z,101577.33
2018-08-30T19:04:50.749Z,101577.14
2018-08-30T19:07:19.896Z,101576.37
2018-08-30T19:09:49.043Z,101580.86
2018-08-30T19:12:18.147Z,101585.80
2018-08-30T19:14:47.104Z,101588.66
2018-08-30T19:17:21.341Z,101595.27
2018-08-30T19:19:50.399Z,101600.86
2018-08-30T19:22:19.772Z,101602.66
2018-08-30T19:24:54.341Z,101605.94
2018-08-30T19:27:23.712Z,101601.02
2018-08-30T19:29:58.238Z,101603.88
2018-08-30T19:32:27.904Z,101601.58
2018-08-30T19:35:01.103Z,101608.70
2018-08-30T19:37:30.119Z,101605.56
2018-08-30T19:39:58.895Z,101614.20
2018-08-30T19:42:27.619Z,101606.43
2018-08-30T19:44:58.387Z,101611.91
2018-08-30T19:47:27.012Z,101611.44
2018-08-30T19:49:55.673Z,101610.47
2018-08-30T19:52:24.218Z,101610.68
2018-08-30T19:54:52.991Z,101609.43
2018-08-30T19:57:21.452Z,101610.14
2018-08-30T19:59:50.019Z,101607.86
2018-08-30T20:02:18.559Z,101611.00
2018-08-30T20:04:47.040Z,101613.86
2018-08-30T20:07:16.053Z,101615.81
2018-08-30T20:09:44.668Z,101613.86
2018-08-30T20:12:13.182Z,101615.56
2018-08-30T20:14:41.833Z,101617.59
2018-08-30T20:17:10.437Z,101613.61
2018-08-30T20:19:39.150Z,101610.00
2018-08-30T20:22:10.320Z,101616.13
2018-08-30T20:24:38.787Z,101617.28
2018-08-30T20:27:07.594Z,101619.77
2018-08-30T20:29:36.139Z,101618.48
2018-08-30T20:32:04.701Z,101626.94
2018-08-30T20:34:33.371Z,101621.67
2018-08-30T20:37:02.095Z,101625.97
2018-08-30T20:39:30.652Z,101625.83
2018-08-30T20:41:59.306Z,101625.68
2018-08-30T20:44:27.801Z,101624.83
2018-08-30T20:46:56.289Z,101622.99
2018-08-30T20:49:25.029Z,101623.36
2018-08-30T20:51:53.610Z,101625.49
2018-08-30T20:54:22.147Z,101632.12
2018-08-30T20:56:50.734Z,101624.84
2018-08-30T20:59:19.271Z,101627.14
2018-08-30T21:01:47.833Z,101629.80
2018-08-30T21:04:16.385Z,101630.95
2018-08-30T21:06:45.074Z,101630.11
2018-08-30T21:09:13.604Z,101629.97
2018-08-30T21:11:42.456Z,101628.81
2018-08-30T21:14:10.954Z,101625.67
2018-08-30T21:16:39.439Z,101631.78
2018-08-30T21:19:07.948Z,101627.83
2018-08-30T21:21:36.527Z,101630.28
2018-08-30T21:24:05.422Z,101630.77
2018-08-30T21:26:33.922Z,101625.52
2018-08-30T21:29:02.579Z,101625.50
2018-08-30T21:31:31.553Z,101624.52
2018-08-30T21:34:00.054Z,101620.23
2018-08-30T21:36:28.563Z,101626.02
2018-08-30T21:38:57.133Z,101624.36
2018-08-30T21:41:25.594Z,101619.06
2018-08-30T21:43:54.093Z,101621.23
2018-08-30T21:46:22.686Z,101624.04
2018-08-30T21:48:51.596Z,101625.52
2018-08-30T21:51:20.074Z,101624.04
2018-08-30T21:53:48.636Z,101625.34
2018-08-30T21:56:17.151Z,101622.55
2018-08-30T21:58:45.845Z,101617.74
2018-08-30T22:01:14.329Z,101620.73
2018-08-30T22:03:42.860Z,101617.77
2018-08-30T22:06:11.366Z,101619.58
2018-08-30T22:08:39.973Z,101622.38
2018-08-30T22:11:08.502Z,101622.38
2018-08-30T22:13:36.982Z,101619.55
2018-08-30T22:16:05.563Z,101622.35
2018-08-30T22:18:34.066Z,101621.03
2018-08-30T22:21:02.643Z,101624.82
2018-08-30T22:23:31.205Z,101621.52
2018-08-30T22:25:59.727Z,101619.20
2018-08-30T22:28:28.374Z,101620.37
2018-08-30T22:30:56.878Z,101620.59
2018-08-30T22:33:25.605Z,101622.41
2018-08-30T22:35:54.099Z,101622.08
2018-08-30T22:38:22.628Z,101619.92
2018-08-30T22:40:51.234Z,101617.47
2018-08-30T22:43:19.720Z,101620.95
2018-08-30T22:45:48.226Z,101628.39
2018-08-30T22:48:16.698Z,101623.55
2018-08-30T22:50:45.341Z,101622.23
2018-08-30T22:53:13.843Z,101625.16
2018-08-30T22:55:42.687Z,101626.03
2018-08-30T22:58:11.175Z,101624.83
2018-08-30T23:00:39.839Z,101621.14
2018-08-30T23:03:08.549Z,101626.95
2018-08-30T23:05:37.037Z,101625.33
2018-08-30T23:08:05.609Z,101617.90
2018-08-30T23:10:34.102Z,101619.38
2018-08-30T23:13:02.641Z,101616.73
2018-08-30T23:15:31.161Z,101619.55
2018-08-30T23:17:59.640Z,101620.54
2018-08-30T23:20:28.163Z,101619.87
2018-08-30T23:22:56.628Z,101613.24
2018-08-30T23:25:25.099Z,101612.76
2018-08-30T23:27:53.609Z,101617.71
2018-08-30T23:30:22.107Z,101622.34
2018-08-30T23:32:50.666Z,101618.55
2018-08-30T23:35:19.121Z,101613.45
2018-08-30T23:37:47.661Z,101620.23
2018-08-30T23:40:16.316Z,101614.66
2018-08-30T23:42:44.809Z,101615.95
2018-08-30T23:45:13.371Z,101612.30
2018-08-30T23:47:41.967Z,101614.61
2018-08-30T23:50:10.466Z,101617.23
2018-08-30T23:52:39.195Z,101615.89
2018-08-30T23:55:07.882Z,101613.55
2018-08-30T23:57:36.908Z,101609.23
